createdAt,value
2019-04-21T00:01:30.688Z,5.97
2019-04-21T00:04:09.498Z,5.87
2019-04-21T00:06:48.048Z,5.43
2019-04-21T00:09:21.148Z,5.90
2019-04-21T00:11:51.363Z,6.10
2019-04-21T00:14:05.749Z,5.37
2019-04-21T00:16:32.138Z,5.30
2019-04-21T00:19:19.072Z,4.93
2019-04-21T00:21:49.242Z,5.37
2019-04-21T00:24:23.958Z,4.70
2019-04-21T00:27:34.291Z,4.70
2019-04-21T00:30:14.118Z,4.27
2019-04-21T00:32:27.923Z,4.40
2019-04-21T00:34:51.018Z,4.67
2019-04-21T00:37:25.457Z,4.77
2019-04-21T00:40:05.335Z,4.90
2019-04-21T00:42:34.335Z,4.57
2019-04-21T00:44:59.261Z,5.10
2019-04-21T00:47:34.557Z,5.23
2019-04-21T00:50:05.314Z,6.07
2019-04-21T00:55:29.851Z,6.00
2019-04-21T01:00:11.659Z,6.73
2019-04-21T01:02:46.892Z,6.50
2019-04-21T01:05:11.099Z,5.97
2019-04-21T01:07:42.422Z,5.80
2019-04-21T01:10:01.973Z,6.40
2019-04-21T01:12:37.420Z,6.07
2019-04-21T01:15:12.566Z,5.43
2019-04-21T01:17:38.297Z,5.33
2019-04-21T01:20:00.029Z,5.37
2019-04-21T01:22:12.866Z,4.50
2019-04-21T01:24:44.880Z,4.70
2019-04-21T01:27:20.677Z,4.83
2019-04-21T01:29:59.794Z,4.80
2019-04-21T01:32:29.723Z,5.03
2019-04-21T01:34:58.303Z,5.00
2019-04-21T01:37:28.854Z,4.47
2019-04-21T01:39:58.417Z,4.30
2019-04-21T01:42:21.350Z,4.20
2019-04-21T01:44:56.289Z,4.87
2019-04-21T01:47:17.449Z,4.50
2019-04-21T01:49:41.690Z,4.37
2019-04-21T01:52:25.792Z,4.50
2019-04-21T01:55:06.462Z,4.50
2019-04-21T01:57:54.081Z,4.30
2019-04-21T02:01:03.539Z,4.30
2019-04-21T02:06:14.930Z,4.47
2019-04-21T02:08:31.357Z,4.30
2019-04-21T02:11:05.182Z,4.33
2019-04-21T02:13:27.722Z,4.40
2019-04-21T02:18:27.674Z,4.40
2019-04-21T02:20:48.262Z,4.03
2019-04-21T02:23:39.515Z,4.70
2019-04-21T02:25:57.458Z,4.70
2019-04-21T02:28:36.725Z,4.27
2019-04-21T02:31:18.664Z,4.97
2019-04-21T02:33:46.537Z,4.70
2019-04-21T02:36:24.700Z,4.80
2019-04-21T02:38:40.325Z,4.50
2019-04-21T02:41:01.478Z,4.40
2019-04-21T02:43:25.609Z,4.37
2019-04-21T02:46:04.783Z,4.20
2019-04-21T02:50:53.393Z,4.33
2019-04-21T02:53:50.698Z,4.03
2019-04-21T02:59:06.861Z,4.47
2019-04-21T03:01:56.224Z,4.63
2019-04-21T03:09:53.055Z,4.20
2019-04-21T03:17:29.212Z,4.53
2019-04-21T03:22:20.769Z,4.70
2019-04-21T03:25:20.377Z,5.10
2019-04-21T03:27:35.594Z,4.63
2019-04-21T03:29:55.507Z,4.40
2019-04-21T03:35:18.447Z,4.83
2019-04-21T03:37:23.506Z,5.23
2019-04-21T03:39:45.491Z,4.90
2019-04-21T03:42:25.632Z,5.40
2019-04-21T03:44:37.376Z,5.40
2019-04-21T03:47:15.448Z,5.00
2019-04-21T03:49:48.118Z,4.90
2019-04-21T03:52:11.979Z,5.03
2019-04-21T03:55:46.837Z,4.77
2019-04-21T03:58:05.099Z,5.17
2019-04-21T04:00:24.985Z,4.70
2019-04-21T04:03:27.468Z,5.20
2019-04-21T04:06:05.435Z,5.13
2019-04-21T04:08:50.206Z,5.17
2019-04-21T04:16:10.204Z,5.17
2019-04-21T04:18:51.197Z,5.73
2019-04-21T04:23:45.240Z,5.43
2019-04-21T04:26:07.617Z,5.30
2019-04-21T04:31:06.469Z,6.07
2019-04-21T04:33:37.461Z,5.23
2019-04-21T04:36:15.598Z,5.10
2019-04-21T04:41:42.296Z,5.50
2019-04-21T04:44:04.875Z,5.40
2019-04-21T04:46:41.573Z,5.60
2019-04-21T04:48:57.320Z,5.73
2019-04-21T04:51:23.339Z,5.93
2019-04-21T04:53:48.773Z,5.67
2019-04-21T04:56:26.120Z,5.50
2019-04-21T05:03:52.674Z,6.07
2019-04-21T05:06:42.449Z,5.57
2019-04-21T05:23:48.382Z,6.73
2019-04-21T05:26:13.791Z,6.60
2019-04-21T05:28:40.902Z,6.20
2019-04-21T05:31:40.105Z,6.80
2019-04-21T05:34:10.321Z,6.20
2019-04-21T05:37:04.100Z,6.73
2019-04-21T05:39:42.352Z,6.90
2019-04-21T05:42:05.019Z,6.90
2019-04-21T05:50:12.151Z,6.97
2019-04-21T05:53:00.735Z,6.73
2019-04-21T05:58:02.537Z,6.87
2019-04-21T06:03:25.155Z,7.00
2019-04-21T06:06:00.742Z,7.30
2019-04-21T06:08:17.943Z,7.00
2019-04-21T06:16:07.315Z,6.80
2019-04-21T06:18:44.485Z,7.10
2019-04-21T06:21:05.696Z,7.93
2019-04-21T06:23:36.602Z,7.03
2019-04-21T06:26:44.798Z,7.60
2019-04-21T06:28:38.065Z,7.30
2019-04-21T06:31:17.968Z,7.37
2019-04-21T06:33:36.297Z,7.37
2019-04-21T06:39:28.319Z,7.47
2019-04-21T06:41:34.281Z,7.63
2019-04-21T06:46:34.987Z,7.70
2019-04-21T06:49:15.575Z,7.47
2019-04-21T06:51:45.510Z,7.30
2019-04-21T06:54:16.139Z,7.70
2019-04-21T06:56:46.419Z,7.97
2019-04-21T06:59:15.123Z,7.43
2019-04-21T07:01:56.602Z,7.97
2019-04-21T07:04:21.026Z,7.57
2019-04-21T07:06:45.733Z,7.43
2019-04-21T07:09:15.306Z,7.93
2019-04-21T07:11:31.565Z,8.13
2019-04-21T07:14:24.363Z,8.20
2019-04-21T07:16:38.679Z,8.67
2019-04-21T07:19:13.225Z,8.00
2019-04-21T07:21:34.218Z,8.57
2019-04-21T07:24:10.677Z,8.07
2019-04-21T07:26:32.704Z,8.00
2019-04-21T07:29:01.876Z,8.60
2019-04-21T07:31:34.807Z,8.10
2019-04-21T07:33:57.361Z,8.43
2019-04-21T07:36:35.466Z,8.43
2019-04-21T07:38:49.832Z,8.47
2019-04-21T07:41:15.931Z,8.13
2019-04-21T07:43:53.431Z,7.83
2019-04-21T07:46:22.563Z,8.00
2019-04-21T07:48:55.745Z,7.63
2019-04-21T07:51:50.679Z,8.23
2019-04-21T07:54:23.812Z,8.20
2019-04-21T07:56:34.355Z,8.03
2019-04-21T07:59:12.760Z,8.03
2019-04-21T08:06:53.664Z,8.07
2019-04-21T08:09:20.867Z,8.40
2019-04-21T08:11:44.279Z,7.83
2019-04-21T08:14:19.655Z,8.20
2019-04-21T08:16:51.204Z,8.37
2019-04-21T08:19:21.737Z,8.20
2019-04-21T08:21:49.611Z,8.93
2019-04-21T08:24:14.968Z,8.40
2019-04-21T08:26:44.952Z,8.67
2019-04-21T08:29:20.666Z,8.83
2019-04-21T08:31:48.603Z,8.50
2019-04-21T08:34:14.130Z,8.17
2019-04-21T08:36:41.386Z,8.43
2019-04-21T08:39:07.318Z,8.97
2019-04-21T08:41:42.637Z,8.50
2019-04-21T08:44:01.649Z,8.47
2019-04-21T08:46:40.622Z,8.20
2019-04-21T08:52:03.749Z,8.13
2019-04-21T08:54:15.116Z,7.70
2019-04-21T08:57:05.122Z,7.83
2019-04-21T08:59:56.859Z,7.63
2019-04-21T09:05:09.481Z,7.30
2019-04-21T09:07:55.259Z,7.67
2019-04-21T09:10:06.808Z,7.60
2019-04-21T09:12:38.251Z,6.60
2019-04-21T09:15:02.717Z,6.30
2019-04-21T09:17:26.283Z,7.00
2019-04-21T09:20:07.590Z,6.50
2019-04-21T09:22:30.766Z,6.97
2019-04-21T09:24:59.671Z,6.43
2019-04-21T09:27:29.346Z,6.40
2019-04-21T09:29:44.731Z,5.80
2019-04-21T09:32:13.577Z,6.30
2019-04-21T09:34:40.446Z,6.60
2019-04-21T09:37:20.332Z,5.57
2019-04-21T09:39:33.834Z,5.63
2019-04-21T09:42:04.418Z,5.83
2019-04-21T09:44:36.773Z,6.33
2019-04-21T09:47:03.164Z,4.87
2019-04-21T09:49:31.730Z,5.47
2019-04-21T09:51:58.135Z,5.23
2019-04-21T09:54:31.171Z,6.10
2019-04-21T09:56:59.952Z,5.63
2019-04-21T09:59:30.093Z,5.50
2019-04-21T10:02:05.190Z,4.77
2019-04-21T10:04:23.093Z,5.27
2019-04-21T10:06:51.970Z,4.60
2019-04-21T10:09:21.763Z,4.37
2019-04-21T10:11:48.930Z,4.60
2019-04-21T10:14:15.665Z,4.43
2019-04-21T10:17:03.069Z,4.27
2019-04-21T10:19:30.330Z,4.83
2019-04-21T10:22:00.444Z,4.57
2019-04-21T10:24:28.512Z,4.23
2019-04-21T10:26:56.346Z,3.93
2019-04-21T10:29:26.535Z,3.93
2019-04-21T10:31:52.520Z,3.60
2019-04-21T10:34:21.120Z,4.23
2019-04-21T10:36:49.056Z,3.83
2019-04-21T10:39:17.866Z,3.80
2019-04-21T10:41:45.804Z,4.00
2019-04-21T10:44:14.424Z,4.23
2019-04-21T10:46:42.848Z,3.70
2019-04-21T10:49:10.834Z,4.10
2019-04-21T10:51:39.374Z,4.40
2019-04-21T10:54:06.324Z,3.97
2019-04-21T10:56:38.084Z,4.03
2019-04-21T10:59:02.739Z,3.73
2019-04-21T11:01:31.367Z,3.50
2019-04-21T11:04:02.797Z,3.33
2019-04-21T11:06:30.825Z,3.07
2019-04-21T11:09:01.044Z,2.93
2019-04-21T11:11:28.077Z,2.87
2019-04-21T11:13:55.155Z,2.87
2019-04-21T11:16:23.389Z,2.23
2019-04-21T11:18:51.715Z,2.77
2019-04-21T11:21:20.868Z,3.10
2019-04-21T11:23:50.125Z,3.00
2019-04-21T11:26:18.464Z,2.60
2019-04-21T11:28:45.589Z,3.17
2019-04-21T11:31:13.318Z,3.23
2019-04-21T11:33:40.522Z,3.37
2019-04-21T11:36:08.982Z,3.40
2019-04-21T11:41:25.649Z,3.17
2019-04-21T11:43:55.014Z,3.27
2019-04-21T11:46:24.466Z,3.20
2019-04-21T11:48:52.592Z,3.43
2019-04-21T11:51:19.826Z,3.57
2019-04-21T11:53:46.934Z,3.40
2019-04-21T11:56:14.676Z,3.83
2019-04-21T11:58:43.940Z,3.63
2019-04-21T12:01:13.890Z,3.60
2019-04-21T12:03:42.010Z,3.17
2019-04-21T12:06:09.275Z,3.20
2019-04-21T12:08:42.350Z,3.47
2019-04-21T12:11:05.628Z,3.83
2019-04-21T12:13:34.047Z,3.43
2019-04-21T12:16:03.135Z,3.70
2019-04-21T12:18:32.438Z,3.20
2019-04-21T12:21:01.122Z,3.17
2019-04-21T12:23:30.076Z,3.57
2019-04-21T12:25:59.113Z,3.40
2019-04-21T12:28:28.035Z,3.33
2019-04-21T12:30:56.137Z,3.30
2019-04-21T12:33:43.634Z,3.23
2019-04-21T12:36:11.600Z,3.63
2019-04-21T12:38:46.934Z,4.03
2019-04-21T12:41:08.718Z,3.40
2019-04-21T12:43:37.359Z,3.20
2019-04-21T12:46:04.502Z,3.37
2019-04-21T12:48:31.956Z,3.30
2019-04-21T12:50:59.805Z,3.33
2019-04-21T12:53:29.597Z,3.77
2019-04-21T12:55:57.882Z,3.80
2019-04-21T12:58:26.260Z,3.20
2019-04-21T13:00:54.635Z,3.37
2019-04-21T13:03:23.909Z,3.37
2019-04-21T13:05:51.781Z,3.70
2019-04-21T13:08:21.736Z,3.33
2019-04-21T13:10:50.234Z,3.37
2019-04-21T13:13:17.709Z,3.80
2019-04-21T13:15:47.330Z,3.50
2019-04-21T13:18:16.412Z,3.67
2019-04-21T13:20:46.352Z,3.43
2019-04-21T13:23:14.851Z,3.10
2019-04-21T13:25:42.068Z,3.33
2019-04-21T13:28:10.380Z,3.77
2019-04-21T13:30:38.176Z,3.40
2019-04-21T13:33:05.335Z,3.10
2019-04-21T13:35:33.166Z,3.40
2019-04-21T13:38:02.693Z,3.77
2019-04-21T13:41:04.939Z,3.50
2019-04-21T13:43:19.375Z,4.00
2019-04-21T13:45:47.682Z,3.40
2019-04-21T13:48:16.772Z,3.77
2019-04-21T13:50:44.449Z,3.70
2019-04-21T13:53:12.391Z,3.50
2019-04-21T13:55:42.488Z,3.90
2019-04-21T13:58:10.476Z,3.80
2019-04-21T14:00:37.970Z,3.53
2019-04-21T14:03:07.089Z,3.33
2019-04-21T14:05:36.182Z,3.50
2019-04-21T14:08:05.083Z,3.60
2019-04-21T14:10:33.585Z,4.03
2019-04-21T14:13:00.572Z,3.50
2019-04-21T14:15:28.410Z,3.80
2019-04-21T14:17:56.925Z,4.00
2019-04-21T14:20:25.256Z,3.77
2019-04-21T14:22:52.062Z,3.30
2019-04-21T14:25:19.626Z,3.40
2019-04-21T14:27:50.661Z,3.60
2019-04-21T14:30:18.571Z,3.50
2019-04-21T14:32:47.631Z,4.03
2019-04-21T14:35:56.835Z,3.70
2019-04-21T14:38:24.911Z,3.50
2019-04-21T14:40:54.399Z,3.27
2019-04-21T14:43:23.766Z,3.43
2019-04-21T14:46:12.931Z,3.47
2019-04-21T14:48:59.678Z,3.53
2019-04-21T14:51:47.476Z,3.90
2019-04-21T14:54:34.488Z,3.47
2019-04-21T14:57:03.109Z,3.60
2019-04-21T14:59:31.155Z,3.70
2019-04-21T15:02:11.657Z,3.50
2019-04-21T15:04:39.759Z,3.30
2019-04-21T15:07:07.693Z,3.20
2019-04-21T15:09:37.161Z,3.23
2019-04-21T15:12:03.453Z,3.10
2019-04-21T15:14:31.773Z,3.33
2019-04-21T15:16:59.240Z,3.10
2019-04-21T15:19:26.642Z,3.57
2019-04-21T15:21:54.317Z,3.40
2019-04-21T15:24:22.432Z,3.37
2019-04-21T15:26:52.935Z,3.37
2019-04-21T15:29:20.463Z,3.40
2019-04-21T15:31:50.510Z,4.03
2019-04-21T15:34:19.243Z,3.90
2019-04-21T15:36:48.243Z,3.67
2019-04-21T15:39:16.163Z,3.87
2019-04-21T15:41:44.906Z,3.10
2019-04-21T15:44:12.888Z,3.27
2019-04-21T15:46:40.079Z,3.13
2019-04-21T15:49:07.201Z,3.40
2019-04-21T15:51:35.751Z,3.53
2019-04-21T15:54:04.873Z,3.03
2019-04-21T15:56:53.150Z,3.63
2019-04-21T15:59:40.226Z,4.50
2019-04-21T16:02:28.458Z,3.30
2019-04-21T16:04:56.747Z,3.20
2019-04-21T16:07:24.458Z,2.80
2019-04-21T16:09:54.259Z,3.50
2019-04-21T16:12:22.051Z,2.90
2019-04-21T16:14:52.392Z,2.80
2019-04-21T16:17:21.152Z,3.20
2019-04-21T16:19:49.928Z,2.97
2019-04-21T16:22:18.856Z,3.10
2019-04-21T16:24:47.757Z,3.10
2019-04-21T16:27:15.305Z,2.87
2019-04-21T16:29:43.965Z,2.83
2019-04-21T16:32:14.137Z,3.70
2019-04-21T16:34:48.946Z,3.77
2019-04-21T16:37:09.777Z,3.93
2019-04-21T16:39:38.666Z,5.40
2019-04-21T16:42:08.346Z,3.80
2019-04-21T16:44:34.813Z,3.17
2019-04-21T16:47:03.322Z,3.40
2019-04-21T16:49:31.733Z,3.20
2019-04-21T16:52:20.371Z,4.43
2019-04-21T16:54:51.892Z,3.33
2019-04-21T16:57:39.897Z,3.80
2019-04-21T17:00:58.606Z,2.60
2019-04-21T17:03:16.923Z,2.70
2019-04-21T17:05:44.051Z,2.80
2019-04-21T17:08:11.310Z,2.77
2019-04-21T17:10:40.335Z,2.90
2019-04-21T17:13:09.629Z,3.20
2019-04-21T17:15:53.090Z,3.37
2019-04-21T17:18:23.170Z,4.90
2019-04-21T17:20:45.032Z,3.30
2019-04-21T17:23:04.082Z,2.70
2019-04-21T17:25:32.083Z,3.20
2019-04-21T17:28:01.549Z,2.90
2019-04-21T17:30:28.849Z,3.70
2019-04-21T17:32:55.614Z,5.93
2019-04-21T17:35:22.860Z,8.43
2019-04-21T17:37:52.064Z,10.50
2019-04-21T17:41:13.854Z,17.37
2019-04-21T17:43:31.974Z,24.20
2019-04-21T17:46:00.654Z,9.20
2019-04-21T17:48:29.175Z,6.10
2019-04-21T17:51:17.324Z,6.00
2019-04-21T17:53:53.773Z,9.43
2019-04-21T17:56:47.485Z,7.20
2019-04-21T17:59:15.251Z,5.80
2019-04-21T18:01:39.337Z,6.13
2019-04-21T18:04:12.617Z,5.90
2019-04-21T18:06:46.709Z,5.63
2019-04-21T18:09:25.523Z,5.77
2019-04-21T18:11:46.760Z,6.10
2019-04-21T18:13:55.628Z,6.10
2019-04-21T18:16:31.621Z,6.33
2019-04-21T18:18:52.964Z,5.57
2019-04-21T18:24:22.254Z,5.80
2019-04-21T18:29:36.579Z,6.17
2019-04-21T18:32:06.218Z,6.37
2019-04-21T18:34:58.148Z,5.43
2019-04-21T18:37:47.700Z,6.07
2019-04-21T18:40:20.436Z,5.20
2019-04-21T18:46:00.687Z,4.90
2019-04-21T18:48:34.907Z,5.10
2019-04-21T18:51:11.553Z,5.63
2019-04-21T18:54:19.328Z,5.77
2019-04-21T18:56:23.177Z,6.03
2019-04-21T18:58:51.205Z,5.73
2019-04-21T19:01:24.191Z,5.73
2019-04-21T19:03:50.727Z,6.00
2019-04-21T19:06:19.404Z,5.73
2019-04-21T19:09:08.280Z,5.77
2019-04-21T19:11:28.132Z,6.60
2019-04-21T19:14:20.906Z,6.23
2019-04-21T19:16:41.620Z,6.30
2019-04-21T19:19:24.681Z,6.00
2019-04-21T19:21:28.296Z,5.90
2019-04-21T19:24:10.828Z,6.90
2019-04-21T19:26:37.799Z,6.60
2019-04-21T19:29:01.549Z,6.47
2019-04-21T19:31:32.142Z,6.10
2019-04-21T19:33:51.660Z,6.53
2019-04-21T19:36:11.273Z,6.80
2019-04-21T19:38:49.261Z,7.40
2019-04-21T19:41:25.698Z,7.00
2019-04-21T19:43:57.418Z,7.53
2019-04-21T19:46:26.418Z,7.20
2019-04-21T19:49:01.282Z,7.93
2019-04-21T19:51:19.805Z,7.67
2019-04-21T19:53:44.555Z,7.63
2019-04-21T19:56:01.250Z,7.90
2019-04-21T19:58:33.802Z,8.23
2019-04-21T20:00:59.636Z,7.93
2019-04-21T20:03:28.148Z,8.80
2019-04-21T20:06:08.161Z,7.90
2019-04-21T20:08:40.145Z,8.50
2019-04-21T20:11:14.558Z,9.60
2019-04-21T20:13:59.499Z,8.77
2019-04-21T20:16:17.279Z,10.73
2019-04-21T20:18:32.047Z,11.20
2019-04-21T20:20:52.183Z,14.23
2019-04-21T20:23:26.124Z,19.23
2019-04-21T20:25:54.710Z,18.80
2019-04-21T20:28:35.781Z,15.83
2019-04-21T20:31:06.804Z,15.10
2019-04-21T20:33:49.345Z,17.60
2019-04-21T20:36:02.015Z,16.30
2019-04-21T20:38:25.024Z,17.03
2019-04-21T20:40:50.909Z,16.67
2019-04-21T20:43:35.037Z,15.90
2019-04-21T20:48:21.064Z,14.27
2019-04-21T20:51:00.254Z,14.53
2019-04-21T20:53:27.413Z,13.60
2019-04-21T20:55:52.825Z,14.07
2019-04-21T21:01:08.722Z,14.03
2019-04-21T21:03:24.257Z,14.70
2019-04-21T21:05:45.791Z,13.83
2019-04-21T21:08:22.921Z,12.40
2019-04-21T21:10:45.342Z,12.50
2019-04-21T21:13:26.517Z,11.40
2019-04-21T21:16:01.189Z,11.57
2019-04-21T21:18:35.571Z,12.20
2019-04-21T21:20:43.126Z,12.30
2019-04-21T21:23:09.210Z,11.00
2019-04-21T21:25:45.172Z,10.30
2019-04-21T21:28:04.375Z,9.97
2019-04-21T21:30:34.706Z,9.43
2019-04-21T21:33:12.670Z,7.90
2019-04-21T21:35:37.111Z,7.17
2019-04-21T21:38:08.187Z,7.40
2019-04-21T21:40:38.266Z,6.90
2019-04-21T21:42:48.143Z,6.73
2019-04-21T21:45:19.862Z,6.63
2019-04-21T21:48:00.706Z,6.93
2019-04-21T21:51:05.871Z,6.70
2019-04-21T21:53:45.656Z,6.70
2019-04-21T21:56:14.497Z,6.23
2019-04-21T21:58:44.263Z,6.40
2019-04-21T22:01:53.139Z,6.33
2019-04-21T22:04:26.348Z,7.13
2019-04-21T22:06:58.247Z,6.13
2019-04-21T22:09:18.700Z,5.80
2019-04-21T22:11:49.576Z,5.93
2019-04-21T22:14:22.955Z,6.13
2019-04-21T22:16:57.788Z,6.40
2019-04-21T22:19:29.770Z,6.20
2019-04-21T22:22:00.998Z,5.83
2019-04-21T22:24:26.937Z,5.87
2019-04-21T22:26:39.385Z,5.73
2019-04-21T22:29:07.642Z,5.63
2019-04-21T22:31:38.899Z,5.67
2019-04-21T22:34:07.574Z,5.23
2019-04-21T22:36:44.725Z,5.97
2019-04-21T22:39:20.795Z,5.57
2019-04-21T22:41:36.309Z,5.60
2019-04-21T22:44:01.007Z,5.13
2019-04-21T22:46:28.662Z,5.17
2019-04-21T22:48:59.532Z,5.30
2019-04-21T22:51:35.382Z,4.73
2019-04-21T22:53:55.851Z,5.07
2019-04-21T22:56:26.822Z,4.83
2019-04-21T22:58:51.342Z,4.60
2019-04-21T23:01:26.719Z,5.10
2019-04-21T23:03:54.699Z,5.20
2019-04-21T23:06:22.067Z,4.43
2019-04-21T23:08:48.082Z,4.00
2019-04-21T23:11:16.650Z,4.20
2019-04-21T23:13:51.808Z,4.50
2019-04-21T23:16:21.448Z,4.13
2019-04-21T23:19:38.849Z,4.30
2019-04-21T23:22:10.246Z,4.17
2019-04-21T23:24:45.540Z,4.33
2019-04-21T23:27:04.800Z,4.30
2019-04-21T23:29:48.228Z,4.20
2019-04-21T23:32:06.688Z,4.37
2019-04-21T23:34:25.244Z,4.57
2019-04-21T23:36:54.480Z,4.90
2019-04-21T23:39:23.312Z,4.13
2019-04-21T23:42:31.831Z,4.20
2019-04-21T23:44:58.072Z,4.30
2019-04-21T23:47:35.595Z,4.27
2019-04-21T23:50:01.407Z,4.50
2019-04-21T23:52:23.623Z,4.20
2019-04-21T23:54:51.616Z,3.80
2019-04-21T23:57:28.512Z,4.37
2019-04-21T23:59:55.390Z,4.00
